Smith Valley, Nevada Weather observations

Data are for 10 minute period ending at time listed.
 Day   Time   Solar   Ave.   Ave.  Ave.  Vector  Max.   Baro.   Total    
  of    of     Rad.   Air    Rel.  Wind   Wind   Wind  Press.  Precip.   
Year   Day            Temp.  Hum.  Speed  Dir.   Gust                    
2017   (PST)  Kw/m2    F      %     mph   deg.    mph    mb.     in.     
-------------------------------------------------------------------------
  22   10:50   0.14   32.6    94    3.4   334     5.2   842.7    0.03 
  22   11:00   0.14   32.8    94    3.5   331     4.5   842.8    0.02 
  22   11:10   0.12   32.8    95    3.2   357     4.4   842.7    0.01 
  22   11:20   0.11   32.9    95    2.2   341     3.4   842.7    0.01 
  22   11:30   0.12   32.7    95    3.6   346     4.6   842.4    0.01 
  22   11:40   0.11   32.6    96    3.7   336     4.9   842.4    0.02 
  22   11:50   0.13   32.7    96    3.4   333     4.9   842.3    0.01 
  22   12:00   0.17   32.9    96    3.0   335     4.5   842.0    0.02 
  22   12:10   0.18   32.9    96    3.7   325     4.9   841.9    0.02 
  22   12:20   0.19   32.9    96    4.2   321     5.7   841.7    0.01 
  22   12:30   0.14   33.1    96    3.0   302     5.2   841.8    0.01 
  22   12:40   0.13   33.8    96    1.0   305     3.4   841.7    0.00 
  22   12:50   0.17   34.6    94    2.1   301     5.1   841.6    0.01 
  22   13:00   0.21   33.8    94    3.3    45     5.0   841.0    0.00 
  22   13:10   0.12   33.9    95    0.7    32     2.3   841.4    0.00 
  22   13:20   0.13   34.3    94    2.1   106     4.2   841.2    0.00 
  22   13:30   0.25   34.4    94    3.0    76     5.4   840.6    0.00 
  22   13:40   0.23   34.9    93    3.9   109     6.2   840.8    0.00 
  22   13:50   0.19   35.8    93    1.4   221     3.5   840.6    0.00 
  22   14:00   0.15   35.4    90    3.3   251     6.3   840.8    0.00 
  22   14:10   0.13   34.1    94    3.0   256     4.4   841.0    0.00 
  22   14:20   0.19   34.7    94    1.5   261     3.4   840.9    0.01 
  22   14:30   0.20   35.6    91    0.7   215     1.9   840.6    0.00 
  22   14:40   0.19   35.0    91    3.2   121     4.5   840.2    0.00 
  22   14:50   0.18   35.2    92    0.6   128     2.0   840.0    0.00 
  22   15:00   0.15   35.3    91    2.6   271     3.9   840.0    0.00 
  22   15:10   0.13   34.5    93    3.6   266     5.6   840.0    0.00 
  22   15:20   0.11   34.5    92    3.6   271     5.1   840.2    0.00 
  22   15:30   0.09   34.0    93    3.6   279     6.4   840.3    0.00 
  22   15:40   0.11   34.0    94    2.5   321     5.1   840.4    0.00 
  22   15:50   0.12   35.0    93    0.4   120     2.9   840.3    0.00 
  22   16:00   0.11   35.3    91    0.6   130     2.4   840.1    0.00 
  22   16:10   0.08   35.5    89    1.6   170     4.0   839.8    0.00 
  22   16:20   0.04   35.0    89    3.6   150     8.8   839.4    0.00 
  22   16:30   0.04   34.3    92    6.6   135     9.6   839.3    0.00 
  22   16:40   0.03   33.9    94    7.0   139     9.7   839.1    0.00 
  22   16:50   0.02   33.7    94    4.6   114     9.3   839.0    0.00 
  22   17:00   0.01   33.3    95    4.0   334     8.0   838.9    0.00 
  22   17:10   0.01   33.6    94    2.5   123     5.3   839.1    0.00 
  22   17:20   0.00   33.7    94    1.2   265     2.6   839.0    0.00 
  22   17:30   0.00   33.5    94    0.3   275     1.8   839.0    0.00 
  22   17:40   0.00   33.2    94    0.6   294     1.5   838.9    0.00 
  22   17:50   0.00   33.0    95    2.2   248     3.1   839.0    0.00 
  22   18:00   0.00   32.8    96    3.3   252     4.1   839.2    0.00 
  22   18:10   0.00   32.7    96    1.9   275     3.7   839.1    0.00 
  22   18:20   0.00   32.5    96    1.8   293     2.8   839.3    0.00 
  22   18:30   0.00   32.3    97    1.4   318     2.6   839.2    0.00 
  22   18:40   0.00   32.2    97    1.2    12     2.3   838.9    0.00 
  22   18:50   0.00   32.1    97    0.4    59     2.0   838.9    0.00 
  22   19:00   0.00   32.1    97    0.9    31     1.6   838.7    0.00 
  22   19:10   0.00   32.0    98    1.6    15     2.7   838.7    0.00 
  22   19:20   0.00   32.0    98    2.5   352     3.5   838.7    0.00 
  22   19:30   0.00   32.0    98    2.6   328     3.5   838.7    0.00 
  22   19:40   0.00   31.9    98    1.9   331     3.1   838.8    0.00 
  22   19:50   100.00  99999.0   99999  99999.0   99999   99999.0   99999.0   99999.00 
  22   20:00   100.00  99999.0   99999  99999.0   99999   99999.0   99999.0   99999.00 
  22   20:10   100.00  99999.0   99999  99999.0   99999   99999.0   99999.0   99999.00 
  22   20:20   100.00  99999.0   99999  99999.0   99999   99999.0   99999.0   99999.00 
  22   20:30   100.00  99999.0   99999  99999.0   99999   99999.0   99999.0   99999.00 
  22   20:40   100.00  99999.0   99999  99999.0   99999   99999.0   99999.0   99999.00 
  22   20:50   100.00  99999.0   99999  99999.0   99999   99999.0   99999.0   99999.00 
  22   21:00   100.00  99999.0   99999  99999.0   99999   99999.0   99999.0   99999.00 
  22   21:10   100.00  99999.0   99999  99999.0   99999   99999.0   99999.0   99999.00 
  22   21:20   100.00  99999.0   99999  99999.0   99999   99999.0   99999.0   99999.00 
  22   21:30   100.00  99999.0   99999  99999.0   99999   99999.0   99999.0   99999.00 
  22   21:40   100.00  99999.0   99999  99999.0   99999   99999.0   99999.0   99999.00 
  22   21:50   0.00   32.0    98    3.1   132     5.8   839.4    0.00 
  22   22:00   0.00   32.1    98    4.4   110     7.6   839.6    0.00 
  22   22:10   0.00   32.7    92    3.3    84     6.5   839.4    0.00 
  22   22:20   0.00   33.9    83    2.1    83     4.5   839.3    0.00 
  22   22:30   0.00   33.8    79    2.3   202     8.3   839.4    0.00 
  22   22:40   0.00   33.6    79    5.9   232     9.1   839.3    0.00 
  22   22:50   0.00   33.3    81    1.5   182     4.7   839.2    0.00 
  22   23:00   0.00   33.5    80    1.8   243     6.1   839.3    0.00 
  22   23:10   0.00   33.0    80    0.0     0     0.0   839.2    0.00 
  22   23:20   0.00   32.6    80    0.5   141     4.5   839.3    0.00 
  22   23:30   0.00   33.3    74    2.6   186     5.3   839.3    0.00 
  22   23:40   0.00   32.9    77    1.3   201     4.5   839.4    0.00 
  22   23:50   0.00   32.5    79    0.0     0     0.0   839.3    0.00 
  23    0:00   0.00   32.2    79    0.6   294     5.5   839.1    0.00 
  23    0:10   0.00   31.6    81    0.6   180     4.2   839.3    0.00 
  23    0:20   0.00   31.6    80    3.3   151     6.0   839.1    0.00 
  23    0:30   0.00   31.9    78    2.9   175     4.7   839.1    0.00 
  23    0:40   0.00   31.5    80    1.8   142     2.5   839.1    0.00 
  23    0:50   0.00   30.4    84    0.1    35     1.5   839.3    0.00 
  23    1:00   0.00   30.1    83    0.4   172     3.9   839.3    0.00 
  23    1:10   0.00   31.2    76    0.9   282     4.0   839.5    0.00 
  23    1:20   0.00   31.4    74    2.1   254     4.2   839.6    0.00 
  23    1:30   0.00   30.8    78    3.9   264     6.9   839.7    0.00 
  23    1:40   0.00   30.5    78    7.2   254    12.7   839.7    0.00 
  23    1:50   0.00   30.6    78    6.5   255    10.9   839.5    0.00 
  23    2:00   0.00   30.5    76    7.2   255    12.1   839.5    0.00 
  23    2:10   0.00   31.2    72    5.7   246     8.9   839.6    0.00 
  23    2:20   0.00   31.2    72    5.9   240    10.4   839.7    0.00 
  23    2:30   0.00   30.7    74    2.5   332     6.2   839.7    0.00 
  23    2:40   0.00   29.6    79    2.5    99     5.1   839.7    0.00 
  23    2:50   0.00   29.4    78    3.8   118     7.1   839.8    0.00 
  23    3:00   0.00   29.4    82    5.2    82     6.9   839.9    0.00 
  23    3:10   0.00   29.1    83    4.0    96     6.1   839.9    0.00 
  23    3:20   0.00   29.3    81    3.5   100     5.8   839.9    0.00 
  23    3:30   0.00   31.0    73    4.9   233    11.2   839.8    0.00 
  23    3:40   0.00   31.4    70    6.6   191    13.3   839.7    0.00 
  23    3:50   0.00   31.1    72    4.6   209     8.2   839.7    0.00 
  23    4:00   0.00   30.7    75    5.8   195    10.2   839.8    0.00 
  23    4:10   0.00   30.0    80    1.5   313     6.4   839.9    0.00 
  23    4:20   0.00   29.6    81    2.4   243     4.7   839.9    0.00 
  23    4:30   0.00   28.9    83    3.3   237     4.6   840.1    0.00 
  23    4:40   0.00   28.1    84    2.5   131     3.4   840.2    0.00 
  23    4:50   0.00   27.5    87    2.1   114     3.4   840.2    0.00 
  23    5:00   0.00   27.1    88    1.7    27     2.9   840.3    0.00 
  23    5:10   0.00   26.2    90    2.4    33     4.0   840.4    0.00 
  23    5:20   0.00   26.0    92    4.0    50     5.4   840.5    0.00 
  23    5:30   0.00   26.7    94    4.0    58     5.1   840.6    0.00 
  23    5:40   0.00   27.0    94    3.6    73     5.4   840.7    0.00 
  23    5:50   0.00   27.5    93    3.2    43     4.9   840.8    0.00 
  23    6:00   0.00   28.3    89    2.7    64     5.4   840.9    0.00 
  23    6:10   0.00   28.6    87    1.4    69     2.7   841.1    0.00 
  23    6:20   0.00   27.7    90    4.6   220     7.1   841.4    0.00 
  23    6:30   0.00   27.9    91    2.6   186     4.6   841.5    0.00 
  23    6:40   0.00   28.1    91    1.2   175     2.1   841.7    0.00 
  23    6:50   0.00   27.8    93    3.1   139     5.1   841.7    0.00 
  23    7:00   0.00   27.5    94    4.6   166     6.5   841.8    0.00 
  23    7:10   0.00   27.1    96    4.6   174     6.2   841.9    0.00 
  23    7:20   0.00   27.0    96    4.0   169     6.4   841.9    0.00 
  23    7:30   0.01   27.0    96    4.3   142     6.0   841.8    0.00 
  23    7:40   0.01   27.1    94    3.8   145     6.4   842.0    0.00 
  23    7:50   0.02   26.9    93    2.4   139     3.9   842.0    0.00 
  23    8:00   0.03   26.3    91    2.4   126     4.2   842.1    0.00 
  23    8:10   0.03   25.8    91    2.3   180     4.2   842.3    0.00 
  23    8:20   0.03   24.8    91    1.4   298     3.1   842.4    0.00 
  23    8:30   0.09   25.5    94    1.9   322     3.1   842.7    0.00 
  23    8:40   0.14   27.4    87    1.9    55     2.9   842.7    0.00 
  23    8:50   0.15   28.1    83    1.2    74     2.4   842.7    0.00 
  23    9:00   0.14   28.8    82    2.0   123     3.9   842.8    0.00 
  23    9:10   0.13   28.4    86    2.4   168     3.8   842.9    0.00 
  23    9:20   0.18   30.9    79    1.6   196     4.2   843.0    0.00 
  23    9:30   0.19   28.4    81    2.9   202     4.2   843.1    0.00 
  23    9:40   0.21   28.4    83    3.4   192     4.9   843.2    0.00 
  23    9:50   0.24   32.0    76    2.0   235     3.4   843.3    0.00 
  23   10:00   0.24   33.4    71    1.7   299     4.2   843.3    0.00 
  23   10:10   0.26   34.0    73    2.8   268     4.9   843.4    0.00 
  23   10:20   0.27   35.2    69    3.1   273     6.0   843.5    0.01 
  23   10:30   0.31   33.0    73    2.0   308     3.8   843.5    0.03 
  23   10:40   0.33   36.3    68    1.4   222     3.5   843.5    0.02 

Return to Smith Valley graphs page.


Western Regional Climate Center,wrcc@dri.edu